createdAt,value
2022-11-09T00:02:49.188Z,44.42
2022-11-09T00:05:54.380Z,44.80
2022-11-09T00:09:05.781Z,47.38
2022-11-09T00:12:10.241Z,48.35
2022-11-09T00:15:16.201Z,46.15
2022-11-09T00:18:21.925Z,46.68
2022-11-09T00:21:38.327Z,56.30
2022-11-09T00:24:43.716Z,44.15
2022-11-09T00:27:49.988Z,47.05
2022-11-09T00:30:57.292Z,36.65
2022-11-09T00:34:04.700Z,50.85
2022-11-09T00:37:12.995Z,46.67
2022-11-09T00:40:18.714Z,38.33
2022-11-09T00:43:23.767Z,43.08
2022-11-09T00:46:29.940Z,45.85
2022-11-09T00:49:37.041Z,48.95
2022-11-09T00:52:42.825Z,54.33
2022-11-09T00:55:48.187Z,49.03
2022-11-09T00:58:53.953Z,47.43
2022-11-09T01:02:00.119Z,41.10
2022-11-09T01:05:06.931Z,41.98
2022-11-09T01:08:13.154Z,47.17
2022-11-09T01:11:23.466Z,39.27
2022-11-09T01:14:29.203Z,53.20
2022-11-09T01:17:34.116Z,32.73
2022-11-09T01:20:40.162Z,47.08
2022-11-09T01:23:46.179Z,45.73
2022-11-09T01:26:52.635Z,51.65
2022-11-09T01:29:57.877Z,44.50
2022-11-09T01:33:03.896Z,42.50
2022-11-09T01:36:11.369Z,41.75
2022-11-09T01:39:17.181Z,40.45
2022-11-09T01:42:23.574Z,41.63
2022-11-09T01:45:43.530Z,33.67
2022-11-09T01:48:56.560Z,50.15
2022-11-09T01:52:13.128Z,41.40
2022-11-09T01:55:23.480Z,44.38
2022-11-09T01:58:33.043Z,29.55
2022-11-09T02:04:49.846Z,40.63
2022-11-09T02:07:57.196Z,40.50
2022-11-09T02:11:25.973Z,35.33
2022-11-09T02:14:31.059Z,39.80
2022-11-09T02:17:38.738Z,44.90
2022-11-09T02:20:44.099Z,41.83
2022-11-09T02:23:49.685Z,44.00
2022-11-09T02:27:07.472Z,34.63
2022-11-09T02:30:13.575Z,35.50
2022-11-09T02:33:19.052Z,38.00
2022-11-09T02:36:24.440Z,40.58
2022-11-09T02:39:35.107Z,40.58
2022-11-09T02:42:41.829Z,34.08
2022-11-09T02:45:47.311Z,42.13
2022-11-09T02:48:52.198Z,40.17
2022-11-09T02:51:57.842Z,51.28
2022-11-09T02:55:03.892Z,41.25
2022-11-09T02:58:10.737Z,36.25
2022-11-09T03:01:16.319Z,33.92
2022-11-09T03:04:22.117Z,42.25
2022-11-09T03:07:26.870Z,41.40
2022-11-09T03:10:31.984Z,38.55
2022-11-09T03:13:36.930Z,40.52
2022-11-09T03:16:46.513Z,42.20
2022-11-09T03:19:49.503Z,45.33
2022-11-09T03:22:56.766Z,33.90
2022-11-09T03:26:04.545Z,38.92
2022-11-09T03:29:11.122Z,43.20
2022-11-09T03:32:17.152Z,39.48
2022-11-09T03:35:17.921Z,36.90
2022-11-09T03:38:24.079Z,47.38
2022-11-09T03:41:31.249Z,34.05
2022-11-09T03:44:36.684Z,35.33
2022-11-09T03:47:43.317Z,35.35
2022-11-09T03:50:49.620Z,29.63
2022-11-09T03:53:55.778Z,38.45
2022-11-09T03:57:01.809Z,30.17
2022-11-09T04:00:07.719Z,29.07
2022-11-09T04:03:14.346Z,31.90
2022-11-09T04:06:20.807Z,37.03
2022-11-09T04:09:26.296Z,32.93
2022-11-09T04:12:32.080Z,26.80
2022-11-09T04:15:38.743Z,35.60
2022-11-09T04:18:45.431Z,33.45
2022-11-09T04:21:51.066Z,33.53
2022-11-09T04:24:57.559Z,35.60
2022-11-09T04:28:04.025Z,39.30
2022-11-09T04:31:12.377Z,35.17
2022-11-09T04:34:17.697Z,35.13
2022-11-09T04:37:24.859Z,29.95
2022-11-09T04:40:31.398Z,37.98
2022-11-09T04:43:36.849Z,36.42
2022-11-09T04:46:43.655Z,36.38
2022-11-09T04:49:49.181Z,31.90
2022-11-09T04:52:54.835Z,34.90
2022-11-09T04:56:01.162Z,33.78
2022-11-09T04:59:08.792Z,32.70
2022-11-09T05:02:14.610Z,31.42
2022-11-09T05:05:22.106Z,28.42
2022-11-09T05:08:27.491Z,27.90
2022-11-09T05:11:34.296Z,31.93
2022-11-09T05:14:41.098Z,30.45
2022-11-09T05:17:46.865Z,30.12
2022-11-09T05:20:53.872Z,32.63
2022-11-09T05:24:09.561Z,33.13
2022-11-09T05:27:15.468Z,29.63
2022-11-09T05:30:21.984Z,32.28
2022-11-09T05:33:27.875Z,33.50
2022-11-09T05:36:33.812Z,30.30
2022-11-09T05:39:39.114Z,28.80
2022-11-09T05:42:44.949Z,24.92
2022-11-09T05:45:44.646Z,31.50
2022-11-09T05:48:37.897Z,28.20
2022-11-09T05:51:44.343Z,28.27
2022-11-09T05:54:49.980Z,25.75
2022-11-09T05:57:54.993Z,29.00
2022-11-09T06:01:00.138Z,30.35
2022-11-09T06:04:06.651Z,26.45
2022-11-09T06:07:12.557Z,30.88
2022-11-09T06:10:17.937Z,26.70
2022-11-09T06:13:23.550Z,28.83
2022-11-09T06:16:30.174Z,28.02
2022-11-09T06:19:35.821Z,24.60
2022-11-09T06:22:43.008Z,24.72
2022-11-09T06:25:49.663Z,25.95
2022-11-09T06:28:55.315Z,22.45
2022-11-09T06:32:01.378Z,25.72
2022-11-09T06:35:07.305Z,24.85
2022-11-09T06:38:14.863Z,24.67
2022-11-09T06:41:19.694Z,24.60
2022-11-09T06:44:25.267Z,24.32
2022-11-09T06:47:25.226Z,21.55
2022-11-09T06:50:31.188Z,25.23
2022-11-09T06:53:38.333Z,23.60
2022-11-09T06:56:45.008Z,21.70
2022-11-09T06:59:50.187Z,26.05
2022-11-09T07:02:57.653Z,24.98
2022-11-09T07:06:05.716Z,21.37
2022-11-09T07:09:12.326Z,25.97
2022-11-09T07:12:20.474Z,22.77
2022-11-09T07:15:28.122Z,25.75
2022-11-09T07:18:36.424Z,25.10
2022-11-09T07:21:43.273Z,23.50
2022-11-09T07:24:50.159Z,23.92
2022-11-09T07:27:57.582Z,22.93
2022-11-09T07:31:02.577Z,23.05
2022-11-09T07:34:11.926Z,23.52
2022-11-09T07:37:17.890Z,21.40
2022-11-09T07:40:24.518Z,22.27
2022-11-09T07:43:30.227Z,21.93
2022-11-09T07:46:36.432Z,21.87
2022-11-09T07:49:43.016Z,19.98
2022-11-09T07:52:48.898Z,20.40
2022-11-09T07:56:40.293Z,23.12
2022-11-09T07:59:49.076Z,21.62
2022-11-09T08:02:54.551Z,22.30
2022-11-09T08:06:02.411Z,20.32
2022-11-09T08:09:09.776Z,22.62
2022-11-09T08:12:15.423Z,21.17
2022-11-09T08:15:22.445Z,21.27
2022-11-09T08:18:32.051Z,18.02
2022-11-09T08:21:37.964Z,18.75
2022-11-09T08:24:45.423Z,21.05
2022-11-09T08:27:51.384Z,20.45
2022-11-09T08:30:59.985Z,19.02
2022-11-09T08:34:07.453Z,21.90
2022-11-09T08:37:14.367Z,19.52
2022-11-09T08:40:21.196Z,20.90
2022-11-09T08:43:27.514Z,21.57
2022-11-09T08:46:38.374Z,21.17
2022-11-09T08:49:42.000Z,20.72
2022-11-09T08:52:48.278Z,22.65
2022-11-09T08:55:53.894Z,22.85
2022-11-09T08:58:58.769Z,20.85
2022-11-09T09:02:04.304Z,23.55
2022-11-09T09:05:09.267Z,21.45
2022-11-09T09:08:18.299Z,23.98
2022-11-09T09:11:24.072Z,23.35
2022-11-09T09:14:30.406Z,26.65
2022-11-09T09:17:37.297Z,25.25
2022-11-09T09:20:42.932Z,29.07
2022-11-09T09:23:49.560Z,27.40
2022-11-09T09:26:56.018Z,29.10
2022-11-09T09:30:03.864Z,28.32
2022-11-09T09:33:14.530Z,27.35
2022-11-09T09:36:21.612Z,19.35
2022-11-09T09:39:27.312Z,27.00
2022-11-09T09:42:46.007Z,25.60
2022-11-09T09:45:51.776Z,25.70
2022-11-09T09:49:03.881Z,24.10
2022-11-09T09:52:22.247Z,26.85
2022-11-09T09:55:42.586Z,27.70
2022-11-09T09:58:49.522Z,27.27
2022-11-09T10:01:58.382Z,26.15
2022-11-09T10:05:03.256Z,24.98
2022-11-09T10:08:27.050Z,23.20
2022-11-09T10:12:17.241Z,25.17
2022-11-09T10:15:52.711Z,22.20
2022-11-09T10:19:35.941Z,20.57
2022-11-09T10:22:52.928Z,24.02
2022-11-09T10:26:04.483Z,24.32
2022-11-09T10:29:16.068Z,23.80
2022-11-09T10:32:07.229Z,22.35
2022-11-09T10:35:23.480Z,24.63
2022-11-09T10:38:36.556Z,21.85
2022-11-09T10:41:59.394Z,19.48
2022-11-09T10:45:46.274Z,25.02
2022-11-09T10:49:11.040Z,24.65
2022-11-09T10:52:48.472Z,24.57
2022-11-09T10:56:37.237Z,26.30
2022-11-09T11:00:05.392Z,22.15
2022-11-09T11:03:32.404Z,20.75
2022-11-09T11:06:56.272Z,23.40
2022-11-09T11:10:36.061Z,21.60
2022-11-09T11:14:01.239Z,23.27
2022-11-09T11:17:42.313Z,24.27
2022-11-09T11:21:28.039Z,24.37
2022-11-09T11:24:52.693Z,24.72
2022-11-09T11:28:06.110Z,24.67
2022-11-09T11:31:27.303Z,24.10
2022-11-09T11:34:59.772Z,25.88
2022-11-09T11:38:42.978Z,25.25
2022-11-09T11:42:16.438Z,25.70
2022-11-09T11:45:59.331Z,25.08
2022-11-09T11:49:46.934Z,22.50
2022-11-09T11:53:26.148Z,22.10
2022-11-09T11:57:04.762Z,24.05
2022-11-09T12:00:29.272Z,27.00
2022-11-09T12:04:06.158Z,21.25
2022-11-09T12:07:57.216Z,23.45
2022-11-09T12:11:23.524Z,23.12
2022-11-09T12:15:06.518Z,17.15
2022-11-09T12:18:46.640Z,23.52
2022-11-09T12:22:26.955Z,22.07
2022-11-09T12:25:57.877Z,22.65
2022-11-09T12:29:37.904Z,25.17
2022-11-09T12:33:11.820Z,22.30
2022-11-09T12:36:47.762Z,23.38
2022-11-09T12:40:13.003Z,24.10
2022-11-09T12:43:43.159Z,23.05
2022-11-09T12:47:12.735Z,21.55
2022-11-09T12:50:36.876Z,20.77
2022-11-09T12:53:59.563Z,22.40
2022-11-09T12:57:31.044Z,22.67
2022-11-09T13:00:59.182Z,19.48
2022-11-09T13:04:08.494Z,19.98
2022-11-09T13:07:32.846Z,20.02
2022-11-09T13:10:56.073Z,20.80
2022-11-09T13:14:43.474Z,20.82
2022-11-09T13:18:16.376Z,21.33
2022-11-09T13:21:43.904Z,20.75
2022-11-09T13:25:08.193Z,18.92
2022-11-09T13:28:19.999Z,22.98
2022-11-09T13:32:28.540Z,35.75
2022-11-09T13:36:03.003Z,29.80
2022-11-09T13:39:46.965Z,28.00
2022-11-09T13:43:26.800Z,25.23
2022-11-09T13:46:53.427Z,27.02
2022-11-09T13:50:16.182Z,22.93
2022-11-09T13:54:18.107Z,24.10
2022-11-09T13:57:40.856Z,24.30
2022-11-09T14:01:03.849Z,22.93
2022-11-09T14:04:49.626Z,21.85
2022-11-09T14:08:14.927Z,23.05
2022-11-09T14:12:03.921Z,26.87
2022-11-09T14:15:59.858Z,20.82
2022-11-09T14:19:27.557Z,22.27
2022-11-09T14:22:51.027Z,22.32
2022-11-09T14:26:23.209Z,24.70
2022-11-09T14:29:42.792Z,23.30
2022-11-09T14:33:08.087Z,24.77
2022-11-09T14:36:32.422Z,24.82
2022-11-09T14:39:56.817Z,25.48
2022-11-09T14:43:44.429Z,23.57
2022-11-09T14:47:11.008Z,22.52
2022-11-09T14:50:40.588Z,27.65
2022-11-09T14:54:05.445Z,24.80
2022-11-09T14:57:29.975Z,25.92
2022-11-09T15:00:47.270Z,25.48
2022-11-09T15:04:31.020Z,24.75
2022-11-09T15:07:55.027Z,27.45
2022-11-09T15:11:18.495Z,27.85
2022-11-09T15:14:47.914Z,29.12
2022-11-09T15:18:10.932Z,27.85
2022-11-09T15:21:42.369Z,29.12
2022-11-09T15:25:06.960Z,29.30
2022-11-09T15:28:38.682Z,27.45
2022-11-09T15:32:26.243Z,29.37
2022-11-09T15:35:50.080Z,30.20
2022-11-09T15:39:20.599Z,29.42
2022-11-09T15:46:08.664Z,27.75
2022-11-09T15:49:38.556Z,30.43
2022-11-09T15:53:02.040Z,30.75
2022-11-09T15:56:37.726Z,30.80
2022-11-09T16:00:03.421Z,33.60
2022-11-09T16:03:28.223Z,32.80
2022-11-09T16:06:51.306Z,40.20
2022-11-09T16:10:14.468Z,40.35
2022-11-09T16:13:31.877Z,50.67
2022-11-09T16:16:55.135Z,55.10
2022-11-09T16:20:20.371Z,42.50
2022-11-09T16:23:42.970Z,48.40
2022-11-09T16:27:12.807Z,46.25
2022-11-09T16:30:33.810Z,50.90
2022-11-09T16:33:58.319Z,45.35
2022-11-09T16:37:21.703Z,56.95
2022-11-09T16:40:45.449Z,58.98
2022-11-09T16:44:08.506Z,56.85
2022-11-09T16:47:32.268Z,55.63
2022-11-09T16:50:56.647Z,50.55
2022-11-09T16:54:20.966Z,51.28
2022-11-09T16:57:44.814Z,50.55
2022-11-09T17:01:11.901Z,53.10
2022-11-09T17:04:34.329Z,51.83
2022-11-09T17:07:57.310Z,46.80
2022-11-09T17:11:26.938Z,46.28
2022-11-09T17:14:43.641Z,49.63
2022-11-09T17:17:55.572Z,47.25
2022-11-09T17:21:24.179Z,44.65
2022-11-09T17:24:47.257Z,44.73
2022-11-09T17:28:10.495Z,47.60
2022-11-09T17:31:33.672Z,43.23
2022-11-09T17:34:59.189Z,45.12
2022-11-09T17:38:23.457Z,47.03
2022-11-09T17:41:46.861Z,44.73
2022-11-09T17:45:11.978Z,42.53
2022-11-09T17:48:36.746Z,45.00
2022-11-09T17:52:00.093Z,44.13
2022-11-09T17:55:23.609Z,45.50
2022-11-09T17:58:47.020Z,43.05
2022-11-09T18:02:10.963Z,43.35
2022-11-09T18:05:34.361Z,45.17
2022-11-09T18:09:26.719Z,45.20
2022-11-09T18:12:23.361Z,44.27
2022-11-09T18:15:47.234Z,42.38
2022-11-09T18:19:15.577Z,44.38
2022-11-09T18:22:38.183Z,42.23
2022-11-09T18:26:13.554Z,42.40
2022-11-09T18:29:37.084Z,46.37
2022-11-09T18:33:01.762Z,46.70
2022-11-09T18:36:30.636Z,48.55
2022-11-09T18:39:53.848Z,44.93
2022-11-09T18:43:16.979Z,47.95
2022-11-09T18:46:40.575Z,47.67
2022-11-09T18:49:58.136Z,45.25
2022-11-09T18:56:34.107Z,47.98
2022-11-09T18:59:57.427Z,50.70
2022-11-09T19:03:21.117Z,50.98
2022-11-09T19:06:43.901Z,48.58
2022-11-09T19:10:08.227Z,52.08
2022-11-09T19:13:31.895Z,48.58
2022-11-09T19:16:55.410Z,55.55
2022-11-09T19:20:19.589Z,44.15
2022-11-09T19:23:43.233Z,40.80
2022-11-09T19:27:08.093Z,29.35
2022-11-09T19:30:32.967Z,24.45
2022-11-09T19:33:56.157Z,38.50
2022-11-09T19:37:20.062Z,36.15
2022-11-09T19:40:44.576Z,31.55
2022-11-09T19:44:04.613Z,29.57
2022-11-09T19:47:27.092Z,22.05
2022-11-09T19:50:50.553Z,27.10
2022-11-09T19:54:15.045Z,22.98
2022-11-09T19:57:38.195Z,23.42
2022-11-09T20:01:02.333Z,25.17
2022-11-09T20:04:26.229Z,23.10
2022-11-09T20:07:50.498Z,24.05
2022-11-09T20:11:25.086Z,21.77
2022-11-09T20:14:48.260Z,22.37
2022-11-09T20:18:12.344Z,20.82
2022-11-09T20:21:36.069Z,27.58
2022-11-09T20:24:59.733Z,29.57
2022-11-09T20:28:24.118Z,31.17
2022-11-09T20:31:48.698Z,39.40
2022-11-09T20:35:11.830Z,32.42
2022-11-09T20:38:35.156Z,27.87
2022-11-09T20:41:58.717Z,25.90
2022-11-09T20:45:23.947Z,24.82
2022-11-09T20:48:55.952Z,22.32
2022-11-09T20:52:12.350Z,22.45
2022-11-09T20:55:35.892Z,23.87
2022-11-09T20:58:52.759Z,21.00
2022-11-09T21:02:17.531Z,18.27
2022-11-09T21:05:41.232Z,19.50
2022-11-09T21:09:11.058Z,17.05
2022-11-09T21:12:31.573Z,24.67
2022-11-09T21:15:42.936Z,20.17
2022-11-09T21:19:06.646Z,18.52
2022-11-09T21:22:29.913Z,16.05
2022-11-09T21:26:15.507Z,17.95
2022-11-09T21:29:58.382Z,17.98
2022-11-09T21:33:21.586Z,17.82
2022-11-09T21:36:46.463Z,17.70
2022-11-09T21:40:09.888Z,15.70
2022-11-09T21:43:33.170Z,18.32
2022-11-09T21:46:50.720Z,18.95
2022-11-09T21:53:24.181Z,23.65
2022-11-09T21:56:47.639Z,19.95
2022-11-09T22:00:11.949Z,18.75
2022-11-09T22:03:38.064Z,18.20
2022-11-09T22:07:01.605Z,17.60
2022-11-09T22:10:19.078Z,16.32
2022-11-09T22:14:01.272Z,18.07
2022-11-09T22:17:25.294Z,14.50
2022-11-09T22:21:04.417Z,16.30
2022-11-09T22:24:28.955Z,16.95
2022-11-09T22:27:52.759Z,22.77
2022-11-09T22:31:20.704Z,27.90
2022-11-09T22:34:45.055Z,21.75
2022-11-09T22:38:09.922Z,21.77
2022-11-09T22:41:34.461Z,18.15
2022-11-09T22:44:57.928Z,18.67
2022-11-09T22:48:22.002Z,17.80
2022-11-09T22:51:46.609Z,19.50
2022-11-09T22:55:10.393Z,19.07
2022-11-09T22:58:34.321Z,17.25
2022-11-09T23:01:57.790Z,18.05
2022-11-09T23:05:22.273Z,21.45
2022-11-09T23:08:45.551Z,23.30
2022-11-09T23:12:02.847Z,21.07
2022-11-09T23:15:27.156Z,19.23
2022-11-09T23:19:00.828Z,24.98
2022-11-09T23:22:18.487Z,19.05
2022-11-09T23:26:01.500Z,21.90
2022-11-09T23:29:25.154Z,19.30
2022-11-09T23:32:47.840Z,20.68
2022-11-09T23:36:11.210Z,25.27
2022-11-09T23:39:34.230Z,22.05
2022-11-09T23:42:50.572Z,21.20
2022-11-09T23:46:07.747Z,16.02
2022-11-09T23:49:31.140Z,25.32
2022-11-09T23:52:55.100Z,20.62
2022-11-09T23:56:24.398Z,22.40
2022-11-09T23:59:41.658Z,22.58
